createdAt,value
2019-04-20T00:00:46.855Z,14.43
2019-04-20T00:03:13.893Z,16.17
2019-04-20T00:05:43.540Z,18.13
2019-04-20T00:08:19.447Z,16.57
2019-04-20T00:10:53.000Z,13.60
2019-04-20T00:13:25.509Z,16.07
2019-04-20T00:15:47.235Z,14.27
2019-04-20T00:18:17.045Z,21.73
2019-04-20T00:21:04.802Z,15.10
2019-04-20T00:23:48.643Z,15.77
2019-04-20T00:27:04.876Z,16.70
2019-04-20T00:29:23.929Z,13.03
2019-04-20T00:31:48.894Z,14.17
2019-04-20T00:34:15.672Z,15.83
2019-04-20T00:36:39.225Z,13.10
2019-04-20T00:39:11.482Z,13.70
2019-04-20T00:41:46.839Z,19.60
2019-04-20T00:44:17.262Z,19.47
2019-04-20T00:46:56.838Z,15.80
2019-04-20T00:49:29.300Z,16.50
2019-04-20T00:52:15.186Z,18.33
2019-04-20T00:54:16.035Z,14.50
2019-04-20T00:56:45.495Z,11.53
2019-04-20T00:59:30.193Z,11.70
2019-04-20T01:02:03.948Z,14.80
2019-04-20T01:04:39.223Z,13.87
2019-04-20T01:07:24.229Z,11.77
2019-04-20T01:10:04.700Z,9.60
2019-04-20T01:12:36.880Z,11.17
2019-04-20T01:15:09.922Z,12.73
2019-04-20T01:17:41.801Z,10.33
2019-04-20T01:20:09.290Z,12.20
2019-04-20T01:22:44.627Z,20.00
2019-04-20T01:25:18.350Z,12.37
2019-04-20T01:28:02.239Z,14.00
2019-04-20T01:30:21.057Z,11.93
2019-04-20T01:33:00.496Z,13.17
2019-04-20T01:35:31.805Z,14.47
2019-04-20T01:38:09.631Z,16.50
2019-04-20T01:40:17.541Z,17.37
2019-04-20T01:42:47.069Z,16.87
2019-04-20T01:45:24.758Z,13.07
2019-04-20T01:47:52.337Z,13.63
2019-04-20T01:50:24.659Z,11.53
2019-04-20T01:53:03.515Z,12.40
2019-04-20T01:55:38.600Z,19.00
2019-04-20T01:58:35.348Z,12.67
2019-04-20T02:01:25.982Z,11.67
2019-04-20T02:04:11.916Z,17.07
2019-04-20T02:06:43.436Z,16.67
2019-04-20T02:09:15.230Z,16.40
2019-04-20T02:11:44.712Z,15.87
2019-04-20T02:14:13.844Z,13.47
2019-04-20T02:16:47.995Z,12.37
2019-04-20T02:19:30.406Z,16.27
2019-04-20T02:22:01.519Z,12.97
2019-04-20T02:24:17.854Z,12.97
2019-04-20T02:26:50.078Z,11.90
2019-04-20T02:29:40.690Z,16.83
2019-04-20T02:32:26.481Z,12.27
2019-04-20T02:35:16.085Z,13.50
2019-04-20T02:40:45.081Z,15.03
2019-04-20T02:48:00.997Z,14.43
2019-04-20T02:50:36.487Z,15.90
2019-04-20T02:53:20.449Z,13.97
2019-04-20T02:55:41.818Z,15.60
2019-04-20T02:58:09.339Z,13.90
2019-04-20T03:00:50.407Z,15.93
2019-04-20T03:02:53.690Z,13.87
2019-04-20T03:05:25.447Z,12.67
2019-04-20T03:08:05.686Z,13.83
2019-04-20T03:10:44.666Z,15.37
2019-04-20T03:13:08.017Z,14.47
2019-04-20T03:15:37.633Z,17.27
2019-04-20T03:18:08.840Z,12.43
2019-04-20T03:20:41.762Z,18.30
2019-04-20T03:23:26.408Z,12.90
2019-04-20T03:26:01.262Z,14.93
2019-04-20T03:28:45.654Z,12.77
2019-04-20T03:34:15.129Z,20.13
2019-04-20T03:36:39.395Z,17.90
2019-04-20T03:38:48.283Z,11.53
2019-04-20T03:41:13.995Z,15.80
2019-04-20T03:43:35.216Z,14.03
2019-04-20T03:46:10.573Z,13.87
2019-04-20T03:48:54.729Z,17.90
2019-04-20T03:51:35.833Z,13.83
2019-04-20T03:54:08.645Z,13.50
2019-04-20T03:57:01.669Z,12.83
2019-04-20T03:59:41.307Z,15.37
2019-04-20T04:02:55.480Z,16.03
2019-04-20T04:05:27.434Z,15.93
2019-04-20T04:07:50.882Z,27.67
2019-04-20T04:10:28.291Z,23.50
2019-04-20T04:13:21.072Z,20.30
2019-04-20T04:15:57.505Z,17.37
2019-04-20T04:18:29.787Z,15.83
2019-04-20T04:21:01.397Z,21.20
2019-04-20T04:23:40.586Z,18.87
2019-04-20T04:26:15.023Z,18.10
2019-04-20T04:28:45.782Z,17.70
2019-04-20T04:31:35.043Z,18.70
2019-04-20T04:33:55.873Z,20.60
2019-04-20T04:36:16.616Z,19.33
2019-04-20T04:38:56.126Z,17.60
2019-04-20T04:41:24.294Z,21.80
2019-04-20T04:43:54.249Z,14.80
2019-04-20T04:46:05.844Z,20.90
2019-04-20T04:48:40.433Z,16.57
2019-04-20T04:51:13.630Z,22.77
2019-04-20T04:53:50.027Z,20.93
2019-04-20T04:56:14.130Z,20.30
2019-04-20T04:58:40.508Z,21.60
2019-04-20T05:01:16.606Z,18.00
2019-04-20T05:04:02.970Z,23.20
2019-04-20T05:06:35.562Z,19.67
2019-04-20T05:08:58.447Z,25.20
2019-04-20T05:11:23.962Z,17.53
2019-04-20T05:14:00.538Z,18.00
2019-04-20T05:16:54.593Z,21.87
2019-04-20T05:19:19.590Z,16.80
2019-04-20T05:22:09.727Z,20.63
2019-04-20T05:24:42.680Z,16.70
2019-04-20T05:27:49.590Z,20.00
2019-04-20T05:29:59.596Z,19.60
2019-04-20T05:32:39.701Z,19.67
2019-04-20T05:35:23.697Z,17.40
2019-04-20T05:40:22.254Z,17.73
2019-04-20T05:42:59.231Z,16.53
2019-04-20T05:45:25.119Z,15.87
2019-04-20T05:48:01.128Z,30.10
2019-04-20T05:50:33.157Z,22.10
2019-04-20T05:53:07.782Z,19.23
2019-04-20T05:55:34.520Z,21.30
2019-04-20T05:58:11.205Z,20.63
2019-04-20T06:00:43.569Z,20.27
2019-04-20T06:03:09.499Z,24.30
2019-04-20T06:05:49.303Z,15.97
2019-04-20T06:08:18.946Z,17.33
2019-04-20T06:10:45.179Z,15.03
2019-04-20T06:13:17.354Z,19.33
2019-04-20T06:16:02.531Z,14.20
2019-04-20T06:18:49.600Z,15.23
2019-04-20T06:21:32.551Z,11.83
2019-04-20T06:24:26.533Z,14.63
2019-04-20T06:27:04.985Z,13.40
2019-04-20T06:29:23.697Z,16.73
2019-04-20T06:31:59.223Z,16.40
2019-04-20T06:37:18.719Z,11.27
2019-04-20T06:44:34.298Z,20.13
2019-04-20T06:49:51.350Z,10.00
2019-04-20T06:52:35.328Z,9.47
2019-04-20T06:55:05.622Z,12.27
2019-04-20T07:00:28.712Z,8.37
2019-04-20T07:12:48.094Z,9.83
2019-04-20T07:15:21.372Z,7.77
2019-04-20T07:17:58.744Z,9.60
2019-04-20T07:20:52.615Z,8.03
2019-04-20T07:23:22.374Z,15.97
2019-04-20T07:25:47.377Z,8.73
2019-04-20T07:28:26.562Z,8.33
2019-04-20T07:30:50.258Z,8.97
2019-04-20T07:33:30.355Z,9.23
2019-04-20T07:35:50.774Z,13.43
2019-04-20T07:38:34.341Z,9.93
2019-04-20T07:41:00.021Z,7.50
2019-04-20T07:43:32.048Z,7.90
2019-04-20T07:46:03.043Z,14.00
2019-04-20T07:48:31.090Z,9.13
2019-04-20T07:50:55.502Z,6.60
2019-04-20T07:53:32.140Z,7.27
2019-04-20T07:56:06.732Z,6.20
2019-04-20T07:58:28.560Z,7.47
2019-04-20T08:01:23.727Z,8.13
2019-04-20T08:03:56.766Z,9.97
2019-04-20T08:06:37.096Z,5.80
2019-04-20T08:09:15.321Z,5.30
2019-04-20T08:11:56.172Z,9.10
2019-04-20T08:14:25.939Z,11.43
2019-04-20T08:19:23.452Z,6.67
2019-04-20T08:21:52.458Z,9.57
2019-04-20T08:24:21.570Z,7.60
2019-04-20T08:26:45.347Z,8.57
2019-04-20T08:29:42.729Z,5.73
2019-04-20T08:32:27.082Z,7.47
2019-04-20T08:34:57.933Z,7.57
2019-04-20T08:37:28.792Z,9.17
2019-04-20T08:40:05.462Z,10.63
2019-04-20T08:42:29.866Z,10.00
2019-04-20T08:45:04.174Z,8.40
2019-04-20T08:47:37.983Z,15.10
2019-04-20T08:50:21.031Z,9.87
2019-04-20T08:55:19.988Z,9.80
2019-04-20T08:57:29.266Z,9.17
2019-04-20T09:00:01.440Z,5.80
2019-04-20T09:02:30.431Z,8.77
2019-04-20T09:05:04.963Z,14.03
2019-04-20T09:07:35.090Z,8.03
2019-04-20T09:10:31.892Z,6.80
2019-04-20T09:12:50.638Z,12.00
2019-04-20T09:15:05.981Z,6.17
2019-04-20T09:17:47.194Z,6.33
2019-04-20T09:20:16.428Z,12.07
2019-04-20T09:23:11.651Z,11.43
2019-04-20T09:25:56.879Z,4.17
2019-04-20T09:28:32.851Z,5.70
2019-04-20T09:31:30.979Z,6.83
2019-04-20T09:34:33.687Z,9.03
2019-04-20T09:37:27.828Z,7.93
2019-04-20T09:40:21.204Z,8.87
2019-04-20T09:43:02.417Z,10.10
2019-04-20T09:45:47.614Z,7.47
2019-04-20T09:48:19.979Z,7.90
2019-04-20T09:51:07.899Z,7.20
2019-04-20T09:53:31.423Z,9.57
2019-04-20T09:56:10.383Z,8.97
2019-04-20T09:58:32.022Z,5.90
2019-04-20T10:01:02.057Z,7.03
2019-04-20T10:03:21.149Z,5.77
2019-04-20T10:05:51.612Z,10.43
2019-04-20T10:08:21.849Z,7.27
2019-04-20T10:10:52.925Z,11.90
2019-04-20T10:13:22.486Z,8.00
2019-04-20T10:15:53.169Z,8.20
2019-04-20T10:18:23.738Z,11.73
2019-04-20T10:20:53.900Z,7.00
2019-04-20T10:23:24.742Z,8.43
2019-04-20T10:25:54.446Z,8.40
2019-04-20T10:28:23.832Z,9.37
2019-04-20T10:30:54.645Z,9.57
2019-04-20T10:33:24.069Z,10.10
2019-04-20T10:35:53.954Z,9.77
2019-04-20T10:38:34.003Z,7.83
2019-04-20T10:41:08.205Z,8.47
2019-04-20T10:43:32.860Z,8.23
2019-04-20T10:46:02.801Z,7.17
2019-04-20T10:48:41.547Z,9.00
2019-04-20T10:51:03.415Z,9.33
2019-04-20T10:53:32.843Z,7.80
2019-04-20T10:56:03.459Z,6.23
2019-04-20T10:58:33.783Z,7.57
2019-04-20T11:01:03.938Z,8.57
2019-04-20T11:03:34.586Z,6.20
2019-04-20T11:06:04.819Z,6.23
2019-04-20T11:08:34.828Z,6.93
2019-04-20T11:11:14.029Z,7.87
2019-04-20T11:13:35.461Z,6.23
2019-04-20T11:16:06.351Z,5.77
2019-04-20T11:18:35.908Z,15.03
2019-04-20T11:21:05.403Z,6.87
2019-04-20T11:23:36.188Z,8.73
2019-04-20T11:26:06.328Z,7.87
2019-04-20T11:28:35.797Z,8.10
2019-04-20T11:31:06.019Z,10.53
2019-04-20T11:33:36.229Z,7.90
2019-04-20T11:36:05.670Z,7.00
2019-04-20T11:38:35.320Z,18.12
2019-04-20T11:41:14.463Z,7.63
2019-04-20T11:43:35.861Z,13.83
2019-04-20T11:46:06.780Z,7.30
2019-04-20T11:48:37.246Z,6.67
2019-04-20T11:51:07.578Z,6.20
2019-04-20T11:53:38.208Z,7.23
2019-04-20T11:56:15.911Z,7.67
2019-04-20T11:58:39.154Z,11.60
2019-04-20T12:01:30.208Z,11.17
2019-04-20T12:04:04.128Z,10.27
2019-04-20T12:06:28.905Z,7.63
2019-04-20T12:08:58.989Z,7.60
2019-04-20T12:11:37.104Z,11.10
2019-04-20T12:14:00.676Z,8.93
2019-04-20T12:16:30.038Z,10.67
2019-04-20T12:19:00.172Z,7.13
2019-04-20T12:21:30.722Z,8.93
2019-04-20T12:24:00.432Z,5.83
2019-04-20T12:26:31.018Z,5.67
2019-04-20T12:29:01.452Z,7.47
2019-04-20T12:31:31.495Z,8.17
2019-04-20T12:34:02.179Z,7.17
2019-04-20T12:36:33.100Z,6.10
2019-04-20T12:39:03.408Z,8.07
2019-04-20T12:41:39.766Z,10.73
2019-04-20T12:44:04.167Z,6.33
2019-04-20T12:46:34.040Z,6.70
2019-04-20T12:49:03.455Z,6.87
2019-04-20T12:51:39.839Z,16.13
2019-04-20T12:54:04.709Z,6.37
2019-04-20T12:56:34.871Z,8.27
2019-04-20T12:59:05.508Z,9.73
2019-04-20T13:01:35.488Z,9.73
2019-04-20T13:04:07.429Z,6.50
2019-04-20T15:57:59.653Z,8.00
2019-04-20T16:00:29.212Z,9.43
2019-04-20T16:03:05.528Z,29.53
2019-04-20T16:05:39.195Z,16.60
2019-04-20T16:08:26.136Z,9.63
2019-04-20T16:10:55.518Z,14.33
2019-04-20T16:26:44.132Z,8.30
2019-04-20T16:29:13.631Z,7.67
2019-04-20T16:31:46.368Z,8.43
2019-04-20T16:34:15.866Z,7.00
2019-04-20T16:36:46.365Z,11.93
2019-04-20T16:39:16.514Z,8.43
2019-04-20T16:41:46.494Z,10.97
2019-04-20T16:44:17.429Z,8.30
2019-04-20T16:46:48.076Z,12.77
2019-04-20T16:49:19.127Z,10.07
2019-04-20T16:51:49.350Z,16.00
2019-04-20T16:54:19.558Z,21.30
2019-04-20T16:56:49.067Z,13.43
2019-04-20T16:59:19.608Z,16.10
2019-04-20T17:01:50.638Z,19.47
2019-04-20T17:04:22.562Z,10.70
2019-04-20T17:07:10.181Z,11.37
2019-04-20T17:09:39.918Z,13.77
2019-04-20T17:12:10.041Z,17.30
2019-04-20T17:14:39.935Z,17.13
2019-04-20T17:17:09.601Z,16.20
2019-04-20T17:19:39.910Z,14.63
2019-04-20T17:22:09.804Z,12.60
2019-04-20T17:24:39.960Z,14.80
2019-04-20T17:27:19.140Z,10.53
2019-04-20T17:30:17.806Z,9.80
2019-04-20T17:32:45.470Z,10.53
2019-04-20T17:35:27.679Z,16.47
2019-04-20T17:37:49.525Z,11.13
2019-04-20T17:40:36.782Z,13.40
2019-04-20T17:43:01.752Z,15.67
2019-04-20T17:45:36.395Z,12.07
2019-04-20T17:48:08.947Z,17.73
2019-04-20T17:50:41.507Z,16.60
2019-04-20T17:53:06.099Z,11.77
2019-04-20T17:55:37.749Z,17.67
2019-04-20T17:58:05.769Z,15.60
2019-04-20T18:01:13.671Z,15.63
2019-04-20T18:04:13.939Z,21.13
2019-04-20T18:06:27.782Z,30.07
2019-04-20T18:08:56.425Z,21.23
2019-04-20T18:11:16.781Z,21.90
2019-04-20T18:13:44.967Z,183.83
2019-04-20T18:16:41.917Z,151.53
2019-04-20T18:19:21.950Z,75.00
2019-04-20T18:21:56.004Z,52.70
2019-04-20T18:24:49.284Z,44.53
2019-04-20T18:27:17.401Z,42.97
2019-04-20T18:29:45.616Z,53.50
2019-04-20T18:32:31.461Z,61.43
2019-04-20T18:35:14.105Z,54.90
2019-04-20T18:37:51.335Z,53.67
2019-04-20T18:40:26.926Z,95.30
2019-04-20T18:42:57.151Z,64.63
2019-04-20T18:45:33.750Z,51.17
2019-04-20T18:48:06.589Z,46.00
2019-04-20T18:50:27.735Z,38.80
2019-04-20T18:52:51.764Z,66.67
2019-04-20T18:55:30.439Z,54.87
2019-04-20T18:57:53.022Z,45.37
2019-04-20T19:00:29.735Z,41.03
2019-04-20T19:02:57.767Z,56.57
2019-04-20T19:05:26.078Z,71.33
2019-04-20T19:07:59.864Z,70.77
2019-04-20T19:10:31.550Z,62.37
2019-04-20T19:13:06.673Z,71.83
2019-04-20T19:16:03.702Z,78.60
2019-04-20T19:19:04.177Z,94.37
2019-04-20T19:21:23.289Z,69.60
2019-04-20T19:23:59.960Z,84.60
2019-04-20T19:26:25.609Z,66.50
2019-04-20T19:28:58.333Z,63.37
2019-04-20T19:31:42.525Z,58.40
2019-04-20T19:34:16.725Z,51.47
2019-04-20T19:36:36.942Z,44.30
2019-04-20T19:39:15.249Z,40.40
2019-04-20T19:41:40.657Z,37.70
2019-04-20T19:44:13.122Z,32.13
2019-04-20T19:47:00.920Z,27.47
2019-04-20T19:49:19.709Z,26.50
2019-04-20T19:52:02.893Z,26.40
2019-04-20T19:54:30.151Z,26.13
2019-04-20T19:56:54.288Z,33.27
2019-04-20T19:59:21.627Z,25.37
2019-04-20T20:01:42.029Z,28.10
2019-04-20T20:04:11.984Z,24.67
2019-04-20T20:06:47.732Z,22.70
2019-04-20T20:09:17.862Z,30.33
2019-04-20T20:11:48.517Z,23.63
2019-04-20T20:14:31.977Z,25.77
2019-04-20T20:17:13.820Z,20.60
2019-04-20T20:19:37.159Z,27.97
2019-04-20T20:22:05.598Z,21.47
2019-04-20T20:24:23.285Z,19.03
2019-04-20T20:27:00.478Z,20.30
2019-04-20T20:29:32.667Z,18.83
2019-04-20T20:32:05.164Z,23.40
2019-04-20T20:34:33.309Z,25.30
2019-04-20T20:37:03.558Z,18.90
2019-04-20T20:39:32.595Z,22.20
2019-04-20T20:42:13.085Z,22.60
2019-04-20T20:44:41.167Z,25.37
2019-04-20T20:47:30.074Z,21.33
2019-04-20T20:50:01.421Z,18.03
2019-04-20T20:52:21.981Z,15.07
2019-04-20T20:54:49.495Z,16.47
2019-04-20T20:57:14.880Z,17.50
2019-04-20T20:59:49.454Z,15.80
2019-04-20T21:02:18.052Z,17.90
2019-04-20T21:04:41.749Z,14.87
2019-04-20T21:07:11.170Z,14.30
2019-04-20T21:09:41.781Z,20.73
2019-04-20T21:12:15.982Z,22.03
2019-04-20T21:14:43.691Z,15.63
2019-04-20T21:17:18.394Z,21.90
2019-04-20T21:20:02.913Z,22.50
2019-04-20T21:22:33.615Z,20.90
2019-04-20T21:24:51.470Z,16.57
2019-04-20T21:27:22.201Z,16.60
2019-04-20T21:29:56.074Z,20.40
2019-04-20T21:32:23.843Z,19.03
2019-04-20T21:35:00.334Z,18.20
2019-04-20T21:37:27.052Z,15.47
2019-04-20T21:39:59.819Z,17.67
2019-04-20T21:42:28.603Z,16.67
2019-04-20T21:45:09.456Z,20.47
2019-04-20T21:47:33.839Z,19.43
2019-04-20T21:50:18.739Z,22.50
2019-04-20T21:52:40.819Z,19.70
2019-04-20T21:55:03.830Z,18.40
2019-04-20T21:57:42.067Z,21.13
2019-04-20T22:00:10.236Z,16.33
2019-04-20T22:02:44.708Z,10.97
2019-04-20T22:05:09.524Z,12.43
2019-04-20T22:07:39.105Z,13.00
2019-04-20T22:10:13.991Z,11.73
2019-04-20T22:12:47.631Z,12.37
2019-04-20T22:15:19.857Z,10.33
2019-04-20T22:17:42.743Z,11.07
2019-04-20T22:20:23.229Z,10.23
2019-04-20T22:23:01.026Z,10.23
2019-04-20T22:25:32.931Z,8.77
2019-04-20T22:27:46.357Z,14.93
2019-04-20T22:30:15.758Z,13.03
2019-04-20T22:32:49.570Z,12.93
2019-04-20T22:35:18.836Z,11.03
2019-04-20T22:37:59.819Z,13.27
2019-04-20T22:40:31.047Z,14.63
2019-04-20T22:43:00.123Z,12.83
2019-04-20T22:45:27.663Z,12.67
2019-04-20T22:48:01.318Z,11.67
2019-04-20T22:50:43.825Z,17.27
2019-04-20T22:53:17.888Z,13.77
2019-04-20T22:55:54.825Z,11.43
2019-04-20T22:58:22.519Z,17.37
2019-04-20T23:00:42.132Z,11.10
2019-04-20T23:03:05.003Z,11.73
2019-04-20T23:05:34.591Z,11.33
2019-04-20T23:08:04.566Z,11.00
2019-04-20T23:10:39.101Z,10.40
2019-04-20T23:13:05.370Z,12.67
2019-04-20T23:15:34.687Z,12.90
2019-04-20T23:18:04.312Z,9.90
2019-04-20T23:20:36.155Z,21.30
2019-04-20T23:23:05.228Z,8.77
2019-04-20T23:25:35.244Z,11.23
2019-04-20T23:28:12.368Z,10.97
2019-04-20T23:30:39.455Z,11.50
2019-04-20T23:33:09.663Z,9.97
2019-04-20T23:35:46.187Z,11.23
2019-04-20T23:38:14.355Z,13.90
2019-04-20T23:40:41.768Z,11.77
2019-04-20T23:43:23.410Z,10.17
2019-04-20T23:46:15.163Z,9.53
2019-04-20T23:48:45.107Z,14.13
2019-04-20T23:51:36.843Z,11.67
2019-04-20T23:53:55.553Z,14.67
2019-04-20T23:56:20.207Z,17.37
2019-04-20T23:58:51.830Z,11.67
